Sunday, June 26, 2016
06:24 UTC
  |  Log In   |  Register Free
Airport Search:

Heart Of Georgia Regional Airport
(KEZM)

FAA data valid effective May 26 2016 - Jul 21 2016 (unless otherwise noted).

 
 
 
 
 
 
 
 
 
 
 
 
 
 
Current Aviation Weather for KEZM

Weather Summary


The most recent METAR observation for EZM was updated at: 12:55 UTC
METAR for KEZM is not available. Closest METAR is for KDBN
KEZM  (most recent observation was updatred at 26:06 UTC)
260615Z AUTO 00000KT 10SM CLR 25/18 A3008 RMK AO2 T02490181

KDBN  (22.1 nm SW)   (most recent observation was updated at 26:06 UTC)
260615Z AUTO 28004KT 10SM CLR 23/21 A3010 RMK AO2

KAZE  (31.6 nm NW)   (most recent observation was updated at 26:06 UTC)
260615Z AUTO 00000KT 10SM CLR 26/24 A3005 RMK AO2 T02610235

TAF for KEZM is not available.
KWRB  (34.6 nm SE)   (most recent observation was updatred at 26:05 UTC)
260500Z 2605/2711 VRB06KT 9999 SCT090 QNH3002INS BECMG 2617/2618 19009KT 8000 -SHRA SCT050 QNH3005INS TEMPO 2620/2624 VRB10G20KT 6000 -TSRA BKN050CB BECMG 2701/2702 VRB06KT 9999 NSW FEW040 QNH3005INS TX39/2621Z TN24/2611Z


GlobalAir.com is loading additional information.
 Current Weather at EZM
81.0 F° (27.0 C°)

North winds at 0.0 mph
Pressure:
30.09 in
Humidity:
54%
Wind:
North at 0.0 mph
Dew Point:
62.6 F° (17.0 C°)
Visibility:
10.00 mi
EZM NOAA Radar




Find All Airport Services Find A Hotel Find A Rental Car Find A Golf Course Find A Restaurant $100 Hamburger



Airport Weather Forecast for KEZM

Translated METAR for KEZM (0615 UTC)
METAR:
KEZM 260615Z AUTO 00000KT 10SM CLR 25/18 A3008 RMK AO2 T02490181
Conditions at:
KEZM (Heart Of Georgia Rgnl, GA) observed 0615 UTC 26 June 2016
Temperature:
25°C (77°F)
Dewpoint:
18°C (64.4°F) [RH = 65.1]
Pressure:
30.08 inches Hg (1018.6 mb)
Winds:
from the N (000 degrees) at 0 mph (0 knots: 0 m/s)
Visibility:
10 mile(s)
Ceiling:
at least 12,000 feet AGL
Clouds:
Clear below 12,000 feet AGL
Remarks:
site is un-manned
site is automated and HAS a precipitation sensor

Translated TAF for KWRB (Robins Afb, GA) (0500 UTC)
TAF text:
KWRB 260500Z 2605/2711 VRB06KT 9999 SCT090 QNH3002INS BECMG 2617/2618 19009KT 8000 -SHRA SCT050 QNH3005INS
Forecast period:
Sunday Jun 26 2016 05:00 UTC - Monday Jun 27 2016 11:00 UTC
Forecast type:
FROM: standard forecast or significant change
Winds:
from the S (190 degrees) at 10.4 mph (9 knots: 4.6 m/s)
Visibility:
Ceiling:
at least 12,000 feet AGL
at least 12,000 feet AGL
Clouds:
Scattered Clouds at 9,000 feet AGL
Scattered Clouds at 5,000 feet AGL
Weather:
Light Shower(s) Rain
TAF text:
2620/2624 VRB10G20KT 6000 -TSRA BKN050CB BECMG 2701/2702 VRB06KT 9999 NSW FEW040 QNH3005INS TX39/2621Z TN24/2611Z
Forecast period:
Monday Jun 27 2016 20:00 UTC - Monday Jun 27 2016 24:00 UTC
Forecast type:
FROM: standard forecast or significant change
Winds:
variable wind direction at 6.9 mph (6 knots: 3.1 m/s)
Visibility:
Ceiling:
at least 12,000 feet AGL
Clouds:
Few Clouds at 4,000 feet AGL
Weather:
Light Thunderstorm Rain
FBO's on the Field
FBO Company Facility Photos Services Transportation Aviation Fuel Prices: Prices include tax
Catering Weather Repair Courtesy Rental Type 100LL JetA JetA+ MOGAS 8087
 
Heart of Georgia Regional Airport

This FBO has not yet been rated
FS:Phillips 66
Last Updated: Jun-16
Login to update fuel prices
SS:
Contact Heart of Georgia Regional AirportMore FBO Information
 
Add another FBO Facility Photos Catering Weather Repair Courtesy Rental Type 100LL JetA JetA+ MOGAS 8087
Services Transportation Aviation Fuel Prices: Prices include tax


model-print
model-print
model-print
model-print